sensor_id;sensor_type;location;lat;lon;timestamp;pressure;altitude;pressure_sealevel;temperature;humidity
22550;BME280;11441;57.164;-2.120;2023-05-12T00:01:32;102169.03;;;10.43;100.00
22550;BME280;11441;57.164;-2.120;2023-05-12T00:03:59;102172.56;;;10.34;100.00
22550;BME280;11441;57.164;-2.120;2023-05-12T00:06:26;102181.75;;;10.30;100.00
22550;BME280;11441;57.164;-2.120;2023-05-12T00:08:52;102171.91;;;10.06;100.00
22550;BME280;11441;57.164;-2.120;2023-05-12T00:11:19;102177.38;;;10.29;100.00
22550;BME280;11441;57.164;-2.120;2023-05-12T00:13:47;102183.66;;;10.52;100.00
22550;BME280;11441;57.164;-2.120;2023-05-12T00:16:15;102179.88;;;10.39;100.00
22550;BME280;11441;57.164;-2.120;2023-05-12T00:19:00;102191.81;;;10.34;100.00
22550;BME280;11441;57.164;-2.120;2023-05-12T00:21:27;102186.19;;;10.40;100.00
22550;BME280;11441;57.164;-2.120;2023-05-12T00:23:54;102192.25;;;10.50;100.00
22550;BME280;11441;57.164;-2.120;2023-05-12T00:26:39;102190.88;;;10.39;100.00
22550;BME280;11441;57.164;-2.120;2023-05-12T00:29:07;102201.72;;;10.35;100.00
22550;BME280;11441;57.164;-2.120;2023-05-12T00:31:33;102207.66;;;10.29;100.00
22550;BME280;11441;57.164;-2.120;2023-05-12T00:34:00;102209.59;;;10.28;100.00
22550;BME280;11441;57.164;-2.120;2023-05-12T00:36:48;102210.63;;;10.32;100.00
22550;BME280;11441;57.164;-2.120;2023-05-12T00:39:15;102203.84;;;10.38;100.00
22550;BME280;11441;57.164;-2.120;2023-05-12T00:41:42;102207.97;;;10.27;100.00
22550;BME280;11441;57.164;-2.120;2023-05-12T00:44:09;102206.16;;;10.45;100.00
22550;BME280;11441;57.164;-2.120;2023-05-12T00:46:36;102210.31;;;10.34;100.00
22550;BME280;11441;57.164;-2.120;2023-05-12T00:49:04;102216.47;;;10.40;100.00
22550;BME280;11441;57.164;-2.120;2023-05-12T00:51:31;102210.63;;;10.32;100.00
22550;BME280;11441;57.164;-2.120;2023-05-12T00:54:17;102205.03;;;10.24;100.00
22550;BME280;11441;57.164;-2.120;2023-05-12T00:56:44;102205.88;;;10.55;100.00
22550;BME280;11441;57.164;-2.120;2023-05-12T00:59:11;102206.81;;;10.51;100.00
22550;BME280;11441;57.164;-2.120;2023-05-12T01:01:56;102206.47;;;10.44;100.00
22550;BME280;11441;57.164;-2.120;2023-05-12T01:04:25;102195.09;;;10.36;100.00
22550;BME280;11441;57.164;-2.120;2023-05-12T01:09:27;102210.41;;;10.60;100.00
22550;BME280;11441;57.164;-2.120;2023-05-12T01:11:55;102209.25;;;10.52;100.00
22550;BME280;11441;57.164;-2.120;2023-05-12T01:14:22;102212.28;;;10.42;100.00
22550;BME280;11441;57.164;-2.120;2023-05-12T01:16:52;102221.38;;;10.43;100.00
22550;BME280;11441;57.164;-2.120;2023-05-12T01:19:41;102216.72;;;10.52;100.00
22550;BME280;11441;57.164;-2.120;2023-05-12T01:22:10;102215.84;;;10.43;100.00
22550;BME280;11441;57.164;-2.120;2023-05-12T01:25:02;102204.34;;;10.41;100.00
22550;BME280;11441;57.164;-2.120;2023-05-12T01:27:31;102210.84;;;10.45;100.00
22550;BME280;11441;57.164;-2.120;2023-05-12T01:30:03;102202.75;;;10.48;100.00
22550;BME280;11441;57.164;-2.120;2023-05-12T01:32:34;102203.06;;;10.38;100.00
22550;BME280;11441;57.164;-2.120;2023-05-12T01:35:03;102204.06;;;10.51;100.00
22550;BME280;11441;57.164;-2.120;2023-05-12T01:37:31;102211.25;;;10.61;100.00
22550;BME280;11441;57.164;-2.120;2023-05-12T01:40:01;102198.03;;;10.40;100.00
22550;BME280;11441;57.164;-2.120;2023-05-12T01:42:28;102204.38;;;10.49;100.00
22550;BME280;11441;57.164;-2.120;2023-05-12T01:44:56;102200.63;;;10.36;100.00
22550;BME280;11441;57.164;-2.120;2023-05-12T01:47:24;102201.91;;;10.39;100.00
22550;BME280;11441;57.164;-2.120;2023-05-12T01:49:58;102200.78;;;10.40;100.00
22550;BME280;11441;57.164;-2.120;2023-05-12T01:52:25;102203.53;;;10.40;100.00
22550;BME280;11441;57.164;-2.120;2023-05-12T01:54:53;102197.25;;;10.26;100.00
22550;BME280;11441;57.164;-2.120;2023-05-12T01:57:21;102204.53;;;10.22;100.00
22550;BME280;11441;57.164;-2.120;2023-05-12T01:59:51;102199.28;;;10.34;100.00
22550;BME280;11441;57.164;-2.120;2023-05-12T02:02:18;102192.84;;;10.38;100.00
22550;BME280;11441;57.164;-2.120;2023-05-12T02:04:45;102205.22;;;10.27;100.00
22550;BME280;11441;57.164;-2.120;2023-05-12T02:07:12;102214.00;;;10.29;100.00
22550;BME280;11441;57.164;-2.120;2023-05-12T02:09:42;102211.22;;;9.98;100.00
22550;BME280;11441;57.164;-2.120;2023-05-12T02:12:09;102211.56;;;9.37;100.00
22550;BME280;11441;57.164;-2.120;2023-05-12T02:14:35;102209.22;;;9.90;100.00
22550;BME280;11441;57.164;-2.120;2023-05-12T02:17:03;102217.50;;;10.21;100.00
22550;BME280;11441;57.164;-2.120;2023-05-12T02:19:30;102219.06;;;10.36;100.00
22550;BME280;11441;57.164;-2.120;2023-05-12T02:21:58;102221.81;;;10.36;100.00
22550;BME280;11441;57.164;-2.120;2023-05-12T02:24:25;102224.25;;;10.37;100.00
22550;BME280;11441;57.164;-2.120;2023-05-12T02:26:52;102229.19;;;10.49;100.00
22550;BME280;11441;57.164;-2.120;2023-05-12T02:29:18;102227.50;;;10.40;100.00
22550;BME280;11441;57.164;-2.120;2023-05-12T02:31:45;102233.06;;;10.26;100.00
22550;BME280;11441;57.164;-2.120;2023-05-12T02:34:15;102226.63;;;10.30;100.00
22550;BME280;11441;57.164;-2.120;2023-05-12T02:36:42;102229.81;;;10.46;100.00
22550;BME280;11441;57.164;-2.120;2023-05-12T02:39:10;102227.84;;;10.38;100.00
22550;BME280;11441;57.164;-2.120;2023-05-12T02:41:37;102233.59;;;10.28;100.00
22550;BME280;11441;57.164;-2.120;2023-05-12T02:44:04;102233.13;;;10.34;100.00
22550;BME280;11441;57.164;-2.120;2023-05-12T02:46:48;102243.03;;;10.13;100.00
22550;BME280;11441;57.164;-2.120;2023-05-12T02:49:15;102247.44;;;10.36;100.00
22550;BME280;11441;57.164;-2.120;2023-05-12T02:51:44;102247.44;;;10.36;100.00
22550;BME280;11441;57.164;-2.120;2023-05-12T02:54:11;102249.56;;;10.48;100.00
22550;BME280;11441;57.164;-2.120;2023-05-12T02:56:38;102245.69;;;10.49;100.00
22550;BME280;11441;57.164;-2.120;2023-05-12T02:59:04;102243.75;;;10.50;100.00
22550;BME280;11441;57.164;-2.120;2023-05-12T03:01:31;102254.72;;;10.41;100.00
22550;BME280;11441;57.164;-2.120;2023-05-12T03:03:58;102239.34;;;10.40;100.00
22550;BME280;11441;57.164;-2.120;2023-05-12T03:06:25;102244.72;;;10.45;100.00
22550;BME280;11441;57.164;-2.120;2023-05-12T03:08:53;102249.97;;;10.55;100.00
22550;BME280;11441;57.164;-2.120;2023-05-12T03:11:21;102245.34;;;10.42;100.00
22550;BME280;11441;57.164;-2.120;2023-05-12T03:13:48;102259.78;;;10.48;100.00
22550;BME280;11441;57.164;-2.120;2023-05-12T03:16:15;102258.94;;;10.38;100.00
22550;BME280;11441;57.164;-2.120;2023-05-12T03:18:45;102261.34;;;10.31;100.00
22550;BME280;11441;57.164;-2.120;2023-05-12T03:21:12;102267.13;;;10.30;100.00
22550;BME280;11441;57.164;-2.120;2023-05-12T03:23:40;102274.38;;;10.48;100.00
22550;BME280;11441;57.164;-2.120;2023-05-12T03:26:06;102270.66;;;10.53;100.00
22550;BME280;11441;57.164;-2.120;2023-05-12T03:28:34;102274.09;;;10.59;100.00
22550;BME280;11441;57.164;-2.120;2023-05-12T03:31:00;102271.50;;;10.62;100.00
22550;BME280;11441;57.164;-2.120;2023-05-12T03:33:28;102269.06;;;10.29;100.00
22550;BME280;11441;57.164;-2.120;2023-05-12T03:35:55;102276.50;;;10.51;100.00
22550;BME280;11441;57.164;-2.120;2023-05-12T03:38:40;102280.09;;;10.29;100.00
22550;BME280;11441;57.164;-2.120;2023-05-12T03:41:07;102279.31;;;10.15;100.00
22550;BME280;11441;57.164;-2.120;2023-05-12T03:43:34;102282.13;;;10.24;100.00
22550;BME280;11441;57.164;-2.120;2023-05-12T03:46:02;102281.31;;;10.23;100.00
22550;BME280;11441;57.164;-2.120;2023-05-12T03:48:29;102289.91;;;10.22;100.00
22550;BME280;11441;57.164;-2.120;2023-05-12T03:50:57;102289.22;;;10.38;100.00
22550;BME280;11441;57.164;-2.120;2023-05-12T03:53:41;102293.59;;;10.40;100.00
22550;BME280;11441;57.164;-2.120;2023-05-12T03:56:11;102293.22;;;10.32;100.00
22550;BME280;11441;57.164;-2.120;2023-05-12T03:58:38;102300.72;;;10.18;100.00
22550;BME280;11441;57.164;-2.120;2023-05-12T04:01:05;102301.69;;;10.36;100.00
22550;BME280;11441;57.164;-2.120;2023-05-12T04:03:32;102305.88;;;10.33;100.00
22550;BME280;11441;57.164;-2.120;2023-05-12T04:06:00;102303.44;;;10.32;100.00
22550;BME280;11441;57.164;-2.120;2023-05-12T04:08:28;102314.69;;;10.22;100.00
22550;BME280;11441;57.164;-2.120;2023-05-12T04:10:58;102309.22;;;10.30;100.00
22550;BME280;11441;57.164;-2.120;2023-05-12T04:13:27;102309.84;;;10.27;100.00
22550;BME280;11441;57.164;-2.120;2023-05-12T04:15:55;102306.88;;;10.37;100.00
22550;BME280;11441;57.164;-2.120;2023-05-12T04:18:23;102310.66;;;10.42;100.00
22550;BME280;11441;57.164;-2.120;2023-05-12T04:20:50;102309.44;;;10.34;100.00
22550;BME280;11441;57.164;-2.120;2023-05-12T04:23:17;102325.53;;;10.41;100.00
22550;BME280;11441;57.164;-2.120;2023-05-12T04:25:45;102317.69;;;10.56;100.00
22550;BME280;11441;57.164;-2.120;2023-05-12T04:28:12;102325.16;;;10.56;100.00
22550;BME280;11441;57.164;-2.120;2023-05-12T04:31:02;102326.81;;;10.66;100.00
22550;BME280;11441;57.164;-2.120;2023-05-12T04:33:30;102328.25;;;10.63;100.00
22550;BME280;11441;57.164;-2.120;2023-05-12T04:35:57;102333.22;;;10.52;100.00
22550;BME280;11441;57.164;-2.120;2023-05-12T04:38:24;102339.22;;;10.54;100.00
22550;BME280;11441;57.164;-2.120;2023-05-12T04:40:58;102337.34;;;10.64;100.00
22550;BME280;11441;57.164;-2.120;2023-05-12T04:43:26;102339.09;;;10.60;100.00
22550;BME280;11441;57.164;-2.120;2023-05-12T04:45:56;102333.78;;;10.63;100.00
22550;BME280;11441;57.164;-2.120;2023-05-12T04:48:26;102340.00;;;10.78;100.00
22550;BME280;11441;57.164;-2.120;2023-05-12T04:50:57;102348.94;;;10.83;100.00
22550;BME280;11441;57.164;-2.120;2023-05-12T04:53:24;102336.44;;;10.46;100.00
22550;BME280;11441;57.164;-2.120;2023-05-12T04:55:51;102340.75;;;10.61;100.00
22550;BME280;11441;57.164;-2.120;2023-05-12T04:58:18;102345.69;;;10.81;100.00
22550;BME280;11441;57.164;-2.120;2023-05-12T05:00:46;102346.69;;;10.85;100.00
22550;BME280;11441;57.164;-2.120;2023-05-12T05:03:13;102353.34;;;10.84;100.00
22550;BME280;11441;57.164;-2.120;2023-05-12T05:05:40;102352.66;;;10.79;100.00
22550;BME280;11441;57.164;-2.120;2023-05-12T05:08:07;102351.28;;;10.67;100.00
22550;BME280;11441;57.164;-2.120;2023-05-12T05:10:34;102355.78;;;10.86;100.00
22550;BME280;11441;57.164;-2.120;2023-05-12T05:13:18;102353.81;;;10.86;100.00
22550;BME280;11441;57.164;-2.120;2023-05-12T05:15:50;102362.19;;;10.72;100.00
22550;BME280;11441;57.164;-2.120;2023-05-12T05:18:18;102369.47;;;10.68;100.00
22550;BME280;11441;57.164;-2.120;2023-05-12T05:20:50;102367.13;;;10.84;100.00
22550;BME280;11441;57.164;-2.120;2023-05-12T05:23:25;102374.22;;;10.77;100.00
22550;BME280;11441;57.164;-2.120;2023-05-12T05:25:52;102368.47;;;10.64;100.00
22550;BME280;11441;57.164;-2.120;2023-05-12T05:28:19;102376.22;;;10.40;100.00
22550;BME280;11441;57.164;-2.120;2023-05-12T05:30:46;102382.94;;;10.47;100.00
22550;BME280;11441;57.164;-2.120;2023-05-12T05:33:14;102375.78;;;10.69;100.00
22550;BME280;11441;57.164;-2.120;2023-05-12T05:35:40;102380.56;;;10.54;100.00
22550;BME280;11441;57.164;-2.120;2023-05-12T05:38:09;102392.63;;;10.67;100.00
22550;BME280;11441;57.164;-2.120;2023-05-12T05:40:36;102385.75;;;10.56;100.00
22550;BME280;11441;57.164;-2.120;2023-05-12T05:43:19;102399.78;;;10.68;100.00
22550;BME280;11441;57.164;-2.120;2023-05-12T05:45:46;102400.69;;;10.64;100.00
22550;BME280;11441;57.164;-2.120;2023-05-12T05:48:16;102398.59;;;10.61;100.00
22550;BME280;11441;57.164;-2.120;2023-05-12T05:50:42;102408.28;;;10.58;100.00
22550;BME280;11441;57.164;-2.120;2023-05-12T05:53:09;102415.56;;;10.54;100.00
22550;BME280;11441;57.164;-2.120;2023-05-12T05:55:36;102425.56;;;10.72;100.00
22550;BME280;11441;57.164;-2.120;2023-05-12T05:58:03;102421.69;;;10.73;100.00
22550;BME280;11441;57.164;-2.120;2023-05-12T06:00:31;102426.06;;;10.74;100.00
22550;BME280;11441;57.164;-2.120;2023-05-12T06:02:58;102426.06;;;10.74;100.00
22550;BME280;11441;57.164;-2.120;2023-05-12T06:05:25;102421.56;;;10.79;100.00
22550;BME280;11441;57.164;-2.120;2023-05-12T06:07:52;102427.81;;;10.70;100.00
22550;BME280;11441;57.164;-2.120;2023-05-12T06:10:18;102423.53;;;10.55;100.00
22550;BME280;11441;57.164;-2.120;2023-05-12T06:13:06;102422.19;;;10.53;100.00
22550;BME280;11441;57.164;-2.120;2023-05-12T06:15:32;102427.81;;;10.70;100.00
22550;BME280;11441;57.164;-2.120;2023-05-12T06:17:59;102427.69;;;10.75;100.00
22550;BME280;11441;57.164;-2.120;2023-05-12T06:20:26;102429.25;;;10.90;100.00
22550;BME280;11441;57.164;-2.120;2023-05-12T06:22:53;102430.69;;;10.65;100.00
22550;BME280;11441;57.164;-2.120;2023-05-12T06:25:20;102426.22;;;10.69;100.00
22550;BME280;11441;57.164;-2.120;2023-05-12T06:27:52;102421.50;;;10.70;100.00
22550;BME280;11441;57.164;-2.120;2023-05-12T06:30:38;102423.69;;;10.82;100.00
22550;BME280;11441;57.164;-2.120;2023-05-12T06:33:05;102421.03;;;10.99;100.00
22550;BME280;11441;57.164;-2.120;2023-05-12T06:35:32;102420.34;;;10.93;100.00
22550;BME280;11441;57.164;-2.120;2023-05-12T06:37:58;102425.31;;;10.83;100.00
22550;BME280;11441;57.164;-2.120;2023-05-12T06:40:25;102425.94;;;10.57;100.00
22550;BME280;11441;57.164;-2.120;2023-05-12T06:42:52;102424.25;;;10.70;100.00
22550;BME280;11441;57.164;-2.120;2023-05-12T06:45:19;102415.00;;;10.97;100.00
22550;BME280;11441;57.164;-2.120;2023-05-12T06:47:47;102422.06;;;10.81;100.00
22550;BME280;11441;57.164;-2.120;2023-05-12T06:50:14;102426.03;;;10.97;100.00
22550;BME280;11441;57.164;-2.120;2023-05-12T06:52:43;102413.47;;;10.82;100.00
22550;BME280;11441;57.164;-2.120;2023-05-12T06:55:10;102424.00;;;10.80;100.00
22550;BME280;11441;57.164;-2.120;2023-05-12T06:57:37;102423.34;;;10.83;100.00
22550;BME280;11441;57.164;-2.120;2023-05-12T07:00:04;102417.81;;;11.06;100.00
22550;BME280;11441;57.164;-2.120;2023-05-12T07:02:33;102424.50;;;11.13;100.00
22550;BME280;11441;57.164;-2.120;2023-05-12T07:05:00;102428.13;;;10.91;100.00
22550;BME280;11441;57.164;-2.120;2023-05-12T07:07:27;102420.50;;;10.97;100.00
22550;BME280;11441;57.164;-2.120;2023-05-12T07:09:54;102423.00;;;11.07;100.00
22550;BME280;11441;57.164;-2.120;2023-05-12T07:12:22;102425.66;;;10.90;100.00
22550;BME280;11441;57.164;-2.120;2023-05-12T07:14:49;102433.38;;;11.02;100.00
22550;BME280;11441;57.164;-2.120;2023-05-12T07:17:15;102433.81;;;10.95;100.00
22550;BME280;11441;57.164;-2.120;2023-05-12T07:19:42;102438.69;;;11.29;100.00
22550;BME280;11441;57.164;-2.120;2023-05-12T07:22:09;102432.34;;;11.20;100.00
22550;BME280;11441;57.164;-2.120;2023-05-12T07:24:36;102445.69;;;11.27;100.00
22550;BME280;11441;57.164;-2.120;2023-05-12T07:27:04;102457.41;;;11.10;100.00
22550;BME280;11441;57.164;-2.120;2023-05-12T07:29:31;102445.94;;;11.17;100.00
22550;BME280;11441;57.164;-2.120;2023-05-12T07:31:58;102451.50;;;11.25;100.00
22550;BME280;11441;57.164;-2.120;2023-05-12T07:34:25;102458.34;;;11.37;100.00
22550;BME280;11441;57.164;-2.120;2023-05-12T07:36:52;102454.63;;;11.32;100.00
22550;BME280;11441;57.164;-2.120;2023-05-12T07:39:19;102455.19;;;11.21;100.00
22550;BME280;11441;57.164;-2.120;2023-05-12T07:41:49;102449.81;;;11.16;100.00
22550;BME280;11441;57.164;-2.120;2023-05-12T07:44:18;102457.38;;;11.32;100.00
22550;BME280;11441;57.164;-2.120;2023-05-12T07:46:45;102451.81;;;11.24;100.00
22550;BME280;11441;57.164;-2.120;2023-05-12T07:49:12;102451.94;;;11.19;100.00
22550;BME280;11441;57.164;-2.120;2023-05-12T07:51:39;102452.72;;;11.50;100.00
22550;BME280;11441;57.164;-2.120;2023-05-12T07:54:05;102444.25;;;11.38;100.00
22550;BME280;11441;57.164;-2.120;2023-05-12T07:56:32;102464.22;;;11.44;100.00
22550;BME280;11441;57.164;-2.120;2023-05-12T07:58:59;102456.59;;;11.41;100.00
22550;BME280;11441;57.164;-2.120;2023-05-12T08:01:26;102467.06;;;11.61;100.00
22550;BME280;11441;57.164;-2.120;2023-05-12T08:03:53;102466.94;;;11.35;100.00
22550;BME280;11441;57.164;-2.120;2023-05-12T08:06:20;102463.00;;;11.59;100.00
22550;BME280;11441;57.164;-2.120;2023-05-12T08:09:06;102468.22;;;11.69;100.00
22550;BME280;11441;57.164;-2.120;2023-05-12T08:11:32;102460.31;;;11.85;100.00
22550;BME280;11441;57.164;-2.120;2023-05-12T08:13:59;102467.13;;;11.39;100.00
22550;BME280;11441;57.164;-2.120;2023-05-12T08:16:26;102453.53;;;11.51;100.00
22550;BME280;11441;57.164;-2.120;2023-05-12T08:18:53;102467.97;;;11.39;100.00
22550;BME280;11441;57.164;-2.120;2023-05-12T08:21:21;102460.22;;;11.50;100.00
22550;BME280;11441;57.164;-2.120;2023-05-12T08:23:47;102455.41;;;11.73;100.00
22550;BME280;11441;57.164;-2.120;2023-05-12T08:26:14;102459.31;;;11.72;100.00
22550;BME280;11441;57.164;-2.120;2023-05-12T08:28:41;102463.78;;;11.50;100.00
22550;BME280;11441;57.164;-2.120;2023-05-12T08:31:08;102459.25;;;11.63;100.00
22550;BME280;11441;57.164;-2.120;2023-05-12T08:33:35;102464.91;;;11.49;100.00
22550;BME280;11441;57.164;-2.120;2023-05-12T08:36:02;102466.44;;;11.73;100.00
22550;BME280;11441;57.164;-2.120;2023-05-12T08:38:30;102459.44;;;11.58;100.00
22550;BME280;11441;57.164;-2.120;2023-05-12T08:43:44;102471.53;;;11.88;100.00
22550;BME280;11441;57.164;-2.120;2023-05-12T08:46:12;102472.06;;;11.91;100.00
22550;BME280;11441;57.164;-2.120;2023-05-12T08:48:40;102477.28;;;12.01;100.00
22550;BME280;11441;57.164;-2.120;2023-05-12T08:51:09;102474.13;;;11.85;100.00
22550;BME280;11441;57.164;-2.120;2023-05-12T08:53:38;102468.91;;;11.83;100.00
22550;BME280;11441;57.164;-2.120;2023-05-12T08:56:07;102467.13;;;11.87;100.00
22550;BME280;11441;57.164;-2.120;2023-05-12T08:58:37;102465.34;;;11.74;100.00
22550;BME280;11441;57.164;-2.120;2023-05-12T09:01:10;102460.28;;;11.67;100.00
22550;BME280;11441;57.164;-2.120;2023-05-12T09:03:37;102470.19;;;11.77;100.00
22550;BME280;11441;57.164;-2.120;2023-05-12T09:06:05;102471.78;;;11.69;100.00
22550;BME280;11441;57.164;-2.120;2023-05-12T09:08:32;102474.13;;;11.85;100.00
22550;BME280;11441;57.164;-2.120;2023-05-12T09:11:01;102463.88;;;11.85;100.00
22550;BME280;11441;57.164;-2.120;2023-05-12T09:14:03;102468.19;;;12.09;100.00
22550;BME280;11441;57.164;-2.120;2023-05-12T09:16:49;102478.59;;;12.12;100.00
22550;BME280;11441;57.164;-2.120;2023-05-12T09:19:19;102484.41;;;11.93;100.00
22550;BME280;11441;57.164;-2.120;2023-05-12T09:21:49;102482.78;;;11.92;100.00
22550;BME280;11441;57.164;-2.120;2023-05-12T09:24:16;102491.06;;;12.01;100.00
22550;BME280;11441;57.164;-2.120;2023-05-12T09:26:51;102484.25;;;11.98;100.00
22550;BME280;11441;57.164;-2.120;2023-05-12T09:29:18;102481.53;;;12.16;100.00
22550;BME280;11441;57.164;-2.120;2023-05-12T09:31:58;102484.63;;;12.32;100.00
22550;BME280;11441;57.164;-2.120;2023-05-12T09:34:35;102493.72;;;12.23;100.00
22550;BME280;11441;57.164;-2.120;2023-05-12T09:37:05;102485.84;;;11.91;100.00
22550;BME280;11441;57.164;-2.120;2023-05-12T09:39:33;102499.56;;;12.22;100.00
22550;BME280;11441;57.164;-2.120;2023-05-12T09:42:20;102506.56;;;12.28;100.00
22550;BME280;11441;57.164;-2.120;2023-05-12T09:44:47;102509.66;;;12.35;100.00
22550;BME280;11441;57.164;-2.120;2023-05-12T09:47:15;102502.69;;;12.47;100.00
22550;BME280;11441;57.164;-2.120;2023-05-12T09:49:45;102514.56;;;12.38;100.00
22550;BME280;11441;57.164;-2.120;2023-05-12T09:52:12;102514.97;;;11.97;100.00
22550;BME280;11441;57.164;-2.120;2023-05-12T09:54:38;102516.41;;;12.03;100.00
22550;BME280;11441;57.164;-2.120;2023-05-12T09:57:06;102520.34;;;12.02;100.00
22550;BME280;11441;57.164;-2.120;2023-05-12T09:59:36;102513.41;;;12.31;100.00
22550;BME280;11441;57.164;-2.120;2023-05-12T10:02:07;102523.81;;;12.34;100.00
22550;BME280;11441;57.164;-2.120;2023-05-12T10:04:48;102519.41;;;12.50;100.00
22550;BME280;11441;57.164;-2.120;2023-05-12T10:07:18;102521.00;;;12.16;100.00
22550;BME280;11441;57.164;-2.120;2023-05-12T10:09:48;102515.69;;;12.37;100.00
22550;BME280;11441;57.164;-2.120;2023-05-12T10:12:15;102523.34;;;12.49;100.00
22550;BME280;11441;57.164;-2.120;2023-05-12T10:14:42;102518.13;;;12.74;100.00
22550;BME280;11441;57.164;-2.120;2023-05-12T10:17:09;102524.31;;;12.53;100.00
22550;BME280;11441;57.164;-2.120;2023-05-12T10:19:38;102525.78;;;12.51;100.00
22550;BME280;11441;57.164;-2.120;2023-05-12T10:22:09;102527.50;;;12.20;100.00
22550;BME280;11441;57.164;-2.120;2023-05-12T10:24:38;102530.09;;;12.17;100.00
22550;BME280;11441;57.164;-2.120;2023-05-12T10:27:06;102527.38;;;12.52;100.00
22550;BME280;11441;57.164;-2.120;2023-05-12T10:29:34;102537.47;;;12.48;100.00
22550;BME280;11441;57.164;-2.120;2023-05-12T10:32:02;102543.00;;;12.39;100.00
22550;BME280;11441;57.164;-2.120;2023-05-12T10:34:32;102536.13;;;12.27;100.00
22550;BME280;11441;57.164;-2.120;2023-05-12T10:36:59;102540.22;;;12.39;100.00
22550;BME280;11441;57.164;-2.120;2023-05-12T10:39:30;102539.28;;;12.78;100.00
22550;BME280;11441;57.164;-2.120;2023-05-12T10:42:06;102544.13;;;12.55;100.00
22550;BME280;11441;57.164;-2.120;2023-05-12T10:44:35;102544.91;;;12.21;100.00
22550;BME280;11441;57.164;-2.120;2023-05-12T10:47:11;102552.59;;;12.50;100.00
22550;BME280;11441;57.164;-2.120;2023-05-12T10:49:40;102554.97;;;12.25;100.00
22550;BME280;11441;57.164;-2.120;2023-05-12T10:52:10;102537.94;;;12.41;100.00
22550;BME280;11441;57.164;-2.120;2023-05-12T10:54:42;102546.25;;;12.67;100.00
22550;BME280;11441;57.164;-2.120;2023-05-12T10:57:14;102560.41;;;12.57;100.00
22550;BME280;11441;57.164;-2.120;2023-05-12T11:00:11;102552.13;;;12.74;100.00
22550;BME280;11441;57.164;-2.120;2023-05-12T11:03:01;102554.88;;;12.66;100.00
22550;BME280;11441;57.164;-2.120;2023-05-12T11:06:01;102555.38;;;12.68;100.00
22550;BME280;11441;57.164;-2.120;2023-05-12T11:08:29;102558.28;;;12.54;100.00
22550;BME280;11441;57.164;-2.120;2023-05-12T11:10:58;102551.16;;;12.61;100.00
22550;BME280;11441;57.164;-2.120;2023-05-12T11:13:25;102556.53;;;12.84;100.00
22550;BME280;11441;57.164;-2.120;2023-05-12T11:15:53;102555.34;;;13.11;100.00
22550;BME280;11441;57.164;-2.120;2023-05-12T11:18:22;102558.97;;;12.94;100.00
22550;BME280;11441;57.164;-2.120;2023-05-12T11:20:49;102545.44;;;13.01;100.00
22550;BME280;11441;57.164;-2.120;2023-05-12T11:23:24;102547.22;;;13.06;100.00
22550;BME280;11441;57.164;-2.120;2023-05-12T11:25:51;102554.25;;;12.86;100.00
22550;BME280;11441;57.164;-2.120;2023-05-12T11:28:18;102553.72;;;13.19;100.00
22550;BME280;11441;57.164;-2.120;2023-05-12T11:31:04;102553.03;;;13.48;100.00
22550;BME280;11441;57.164;-2.120;2023-05-12T11:33:31;102557.91;;;13.51;100.00
22550;BME280;11441;57.164;-2.120;2023-05-12T11:35:58;102543.59;;;13.41;100.00
22550;BME280;11441;57.164;-2.120;2023-05-12T11:38:24;102546.03;;;13.51;100.00
22550;BME280;11441;57.164;-2.120;2023-05-12T11:41:11;102553.31;;;13.64;100.00
22550;BME280;11441;57.164;-2.120;2023-05-12T11:43:56;102537.28;;;13.14;100.00
22550;BME280;11441;57.164;-2.120;2023-05-12T11:46:27;102547.38;;;13.27;100.00
22550;BME280;11441;57.164;-2.120;2023-05-12T11:48:58;102536.97;;;13.15;100.00
22550;BME280;11441;57.164;-2.120;2023-05-12T11:51:43;102557.00;;;12.77;100.00
22550;BME280;11441;57.164;-2.120;2023-05-12T11:54:29;102562.50;;;13.30;100.00
22550;BME280;11441;57.164;-2.120;2023-05-12T11:56:57;102553.84;;;13.49;100.00
22550;BME280;11441;57.164;-2.120;2023-05-12T11:59:31;102563.09;;;13.53;100.00
22550;BME280;11441;57.164;-2.120;2023-05-12T12:02:02;102562.41;;;13.73;100.00
22550;BME280;11441;57.164;-2.120;2023-05-12T12:04:36;102549.56;;;13.60;100.00
22550;BME280;11441;57.164;-2.120;2023-05-12T12:07:07;102558.38;;;13.62;100.00
22550;BME280;11441;57.164;-2.120;2023-05-12T12:09:39;102559.97;;;13.63;100.00
22550;BME280;11441;57.164;-2.120;2023-05-12T12:12:14;102556.22;;;13.68;100.00
22550;BME280;11441;57.164;-2.120;2023-05-12T12:14:41;102562.50;;;13.38;100.00
22550;BME280;11441;57.164;-2.120;2023-05-12T12:17:08;102562.28;;;13.61;100.00
22550;BME280;11441;57.164;-2.120;2023-05-12T12:19:35;102568.63;;;13.62;100.00
22550;BME280;11441;57.164;-2.120;2023-05-12T12:22:02;102566.66;;;13.71;100.00
22550;BME280;11441;57.164;-2.120;2023-05-12T12:24:29;102564.69;;;13.71;100.00
22550;BME280;11441;57.164;-2.120;2023-05-12T12:26:56;102572.63;;;13.82;100.00
22550;BME280;11441;57.164;-2.120;2023-05-12T12:29:23;102572.75;;;13.47;100.00
22550;BME280;11441;57.164;-2.120;2023-05-12T12:31:51;102569.31;;;13.97;100.00
22550;BME280;11441;57.164;-2.120;2023-05-12T12:34:18;102560.78;;;13.72;100.00
22550;BME280;11441;57.164;-2.120;2023-05-12T12:36:45;102567.28;;;13.76;100.00
22550;BME280;11441;57.164;-2.120;2023-05-12T12:39:14;102569.94;;;14.03;100.00
22550;BME280;11441;57.164;-2.120;2023-05-12T12:41:45;102562.97;;;13.49;100.00
22550;BME280;11441;57.164;-2.120;2023-05-12T12:44:13;102559.41;;;13.87;100.00
22550;BME280;11441;57.164;-2.120;2023-05-12T12:46:40;102569.38;;;13.80;100.00
22550;BME280;11441;57.164;-2.120;2023-05-12T12:49:07;102569.06;;;13.81;100.00